Time;durP1;ratioP1;P1;durP2;ratioP2;P2;SDS_P1;SDS_P2;PMS_P1;PMS_P2;Temp;Humidity;BMP_temperature;BMP_pressure;BME280_temperature;BME280_humidity;BME280_pressure;Samples;Min_cycle;Max_cycle;Signal;HPM_P1;HPM_P2
2022/06/03 00:01:09;;;;;;;8.15;3.30;;;13.40;99.90;;;;;;5097492;28;20440;-68
2022/06/03 00:03:59;;;;;;;6.40;3.55;;;13.40;99.90;;;;;;5100351;28;20105;-68
2022/06/03 00:07:01;;;;;;;7.38;3.67;;;13.40;99.90;;;;;;5104248;28;20043;-68
2022/06/03 00:09:45;;;;;;;7.20;3.70;;;13.30;99.90;;;;;;5096794;28;20040;-68
2022/06/03 00:12:34;;;;;;;6.95;3.80;;;13.30;99.90;;;;;;5085330;28;20396;-68
2022/06/03 00:15:16;;;;;;;8.07;3.33;;;13.30;99.90;;;;;;5103510;28;20072;-68
2022/06/03 00:17:48;;;;;;;7.07;3.55;;;13.20;99.90;;;;;;5102172;28;20044;-68
2022/06/03 00:20:26;;;;;;;6.15;3.60;;;13.20;99.90;;;;;;5098735;28;20646;-68
2022/06/03 00:23:24;;;;;;;6.30;3.80;;;13.10;99.90;;;;;;5099655;28;20112;-69
2022/06/03 00:26:14;;;;;;;5.65;3.40;;;13.10;99.90;;;;;;5099226;28;20398;-68
2022/06/03 00:28:54;;;;;;;6.85;3.22;;;13.10;99.90;;;;;;5099195;28;20519;-68
2022/06/03 00:31:41;;;;;;;5.72;3.90;;;13.00;99.90;;;;;;5095330;28;20040;-68
2022/06/03 00:34:48;;;;;;;6.38;3.67;;;13.10;99.90;;;;;;5073183;28;20039;-68
2022/06/03 00:37:47;;;;;;;6.90;3.70;;;13.10;99.90;;;;;;5103487;28;20570;-68
2022/06/03 00:40:28;;;;;;;7.37;3.83;;;13.00;99.90;;;;;;5099740;28;20046;-68
2022/06/03 00:43:18;;;;;;;6.90;3.58;;;13.00;99.90;;;;;;5104225;28;20391;-68
2022/06/03 00:45:55;;;;;;;5.00;3.50;;;13.00;99.90;;;;;;5104494;28;20048;-68
2022/06/03 00:48:29;;;;;;;5.95;3.80;;;13.00;99.90;;;;;;5101063;28;20063;-69
2022/06/03 00:51:28;;;;;;;8.60;4.20;;;13.00;99.90;;;;;;5106212;28;20529;-68
2022/06/03 00:54:23;;;;;;;7.45;3.85;;;12.90;99.90;;;;;;5108828;28;20043;-69
2022/06/03 00:56:57;;;;;;;7.13;3.90;;;12.90;99.90;;;;;;5108951;28;20605;-69
2022/06/03 00:59:37;;;;;;;6.57;3.83;;;12.90;99.90;;;;;;5107410;28;20478;-69
2022/06/03 01:02:44;;;;;;;7.57;4.05;;;12.90;99.90;;;;;;5099712;28;20411;-69
2022/06/03 01:05:31;;;;;;;10.00;4.40;;;12.80;99.90;;;;;;5092524;28;20479;-68
2022/06/03 01:08:19;;;;;;;6.68;3.95;;;12.70;99.90;;;;;;5097327;28;20048;-69
2022/06/03 01:11:02;;;;;;;6.13;4.20;;;12.70;99.90;;;;;;5079981;28;20043;-69
2022/06/03 01:13:35;;;;;;;7.53;4.00;;;12.60;99.90;;;;;;5098931;28;20075;-68
2022/06/03 01:16:19;;;;;;;6.63;4.35;;;12.60;99.90;;;;;;5086326;28;20045;-68
2022/06/03 01:18:51;;;;;;;7.60;4.10;;;12.60;99.90;;;;;;5096538;28;20552;-69
2022/06/03 01:21:38;;;;;;;7.72;4.68;;;12.50;99.90;;;;;;5101975;28;20052;-69
2022/06/03 01:24:41;;;;;;;9.27;4.50;;;12.50;99.90;;;;;;5109956;28;20058;-69
2022/06/03 01:27:15;;;;;;;5.88;3.85;;;12.50;99.90;;;;;;5109671;28;20047;-69
2022/06/03 01:30:14;;;;;;;7.18;4.50;;;12.50;99.90;;;;;;5088582;28;20078;-68
2022/06/03 01:33:09;;;;;;;6.55;4.43;;;12.50;99.90;;;;;;5078482;28;20103;-68
2022/06/03 01:35:55;;;;;;;8.35;4.57;;;12.50;99.90;;;;;;5078774;28;20186;-68
2022/06/03 01:38:41;;;;;;;6.25;4.57;;;12.40;99.90;;;;;;5069920;28;20057;-68
2022/06/03 01:41:35;;;;;;;5.25;4.00;;;12.50;99.90;;;;;;5070963;28;20043;-68
2022/06/03 01:44:33;;;;;;;8.80;4.30;;;12.50;99.90;;;;;;5078755;28;20430;-68
2022/06/03 01:47:17;;;;;;;7.50;4.60;;;12.40;99.90;;;;;;5045462;28;20067;-68
2022/06/03 01:50:07;;;;;;;8.13;5.20;;;12.40;99.90;;;;;;5073456;28;20052;-68
2022/06/03 01:52:51;;;;;;;7.50;4.75;;;12.40;99.90;;;;;;5086543;28;20040;-70
2022/06/03 01:55:38;;;;;;;7.20;4.85;;;12.40;99.90;;;;;;5072623;28;20047;-68
2022/06/03 01:58:41;;;;;;;7.93;4.60;;;12.30;99.90;;;;;;5081050;28;20076;-68
2022/06/03 02:01:07;;;;;;;11.68;5.50;;;12.30;99.90;;;;;;5074915;28;20123;-68
2022/06/03 02:03:54;;;;;;;7.38;4.78;;;12.30;99.90;;;;;;5076459;28;20583;-68
2022/06/03 02:06:39;;;;;;;7.50;4.68;;;12.30;99.90;;;;;;5071289;28;20105;-68
2022/06/03 02:09:19;;;;;;;6.88;4.60;;;12.30;99.90;;;;;;5072300;28;20052;-68
2022/06/03 02:11:54;;;;;;;8.40;5.38;;;12.20;99.90;;;;;;5075683;28;20067;-68
2022/06/03 02:14:53;;;;;;;10.32;5.28;;;12.20;99.90;;;;;;5083885;28;20483;-67
2022/06/03 02:17:28;;;;;;;5.47;4.65;;;12.10;99.90;;;;;;5074134;28;20040;-68
2022/06/03 02:19:53;;;;;;;9.35;5.28;;;12.10;99.90;;;;;;5074409;28;20098;-69
2022/06/03 02:22:19;;;;;;;7.40;5.53;;;12.00;99.90;;;;;;5077306;28;20035;-68
2022/06/03 02:25:05;;;;;;;8.38;5.20;;;12.00;99.90;;;;;;5086053;28;20040;-68
2022/06/03 02:27:43;;;;;;;8.30;5.35;;;12.00;99.90;;;;;;5088017;28;20044;-68
2022/06/03 02:30:30;;;;;;;10.57;5.68;;;12.00;99.90;;;;;;5106712;28;20055;-68
2022/06/03 02:33:15;;;;;;;;;;;12.00;99.90;;;;;;5086943;28;20444;-69
2022/06/03 02:36:11;;;;;;;7.82;5.60;;;11.90;99.90;;;;;;5089471;28;19920;-68
2022/06/03 02:38:51;;;;;;;7.13;4.82;;;11.90;99.90;;;;;;5093757;28;20035;-69
2022/06/03 02:41:36;;;;;;;8.57;5.50;;;11.90;99.90;;;;;;5109409;28;20044;-68
2022/06/03 02:44:20;;;;;;;8.63;5.72;;;11.90;99.90;;;;;;5090430;28;20083;-68
2022/06/03 02:47:19;;;;;;;9.48;5.70;;;11.80;99.90;;;;;;5089289;28;20050;-68
2022/06/03 02:50:25;;;;;;;7.53;5.88;;;11.80;99.90;;;;;;5102913;28;20423;-68
2022/06/03 02:53:00;;;;;;;9.53;6.30;;;11.80;99.90;;;;;;5073435;28;20089;-68
2022/06/03 02:55:41;;;;;;;9.07;5.70;;;11.70;99.90;;;;;;5100277;28;20051;-68
2022/06/03 02:58:15;;;;;;;8.38;6.07;;;11.70;99.90;;;;;;5106500;28;20352;-68
2022/06/03 03:01:09;;;;;;;9.95;6.63;;;11.70;99.90;;;;;;5090770;28;20036;-69
2022/06/03 03:04:08;;;;;;;8.43;6.47;;;11.70;99.90;;;;;;5101788;28;20049;-68
2022/06/03 03:07:11;;;;;;;10.93;5.93;;;11.70;99.90;;;;;;5103459;28;20104;-68
2022/06/03 03:10:21;;;;;;;8.63;6.57;;;11.70;99.90;;;;;;5098467;28;20044;-68
2022/06/03 03:13:06;;;;;;;9.85;6.65;;;11.70;99.90;;;;;;5067064;28;20044;-69
2022/06/03 03:15:37;;;;;;;8.98;6.18;;;11.60;99.90;;;;;;5083043;28;20047;-68
2022/06/03 03:18:26;;;;;;;7.65;6.63;;;11.60;99.90;;;;;;5098940;28;20465;-68
2022/06/03 03:21:33;;;;;;;10.52;7.28;;;11.60;99.90;;;;;;5100323;28;20078;-68
2022/06/03 03:24:15;;;;;;;8.60;6.60;;;11.60;99.90;;;;;;5093516;28;20056;-68
2022/06/03 03:27:12;;;;;;;10.73;6.85;;;11.60;99.90;;;;;;5087029;28;20048;-68
2022/06/03 03:29:57;;;;;;;9.23;7.07;;;11.60;99.90;;;;;;5090184;28;20051;-68
2022/06/03 03:32:42;;;;;;;8.43;7.00;;;11.50;99.90;;;;;;5106352;28;20517;-68
2022/06/03 03:35:36;;;;;;;9.25;6.53;;;11.50;99.90;;;;;;5098148;28;20048;-68
2022/06/03 03:38:35;;;;;;;9.18;6.25;;;11.60;99.90;;;;;;5094091;28;20044;-69
2022/06/03 03:41:36;;;;;;;10.10;7.13;;;11.60;99.90;;;;;;5092883;28;20047;-68
2022/06/03 03:44:20;;;;;;;10.88;6.78;;;11.50;99.90;;;;;;5098533;28;20048;-68
2022/06/03 03:47:30;;;;;;;9.05;7.25;;;11.50;99.90;;;;;;5107728;28;20536;-69
2022/06/03 03:50:18;;;;;;;9.65;6.85;;;11.50;99.90;;;;;;5055251;28;20051;-68
2022/06/03 03:52:49;;;;;;;11.65;7.50;;;11.50;99.90;;;;;;5088747;28;20055;-69
2022/06/03 03:55:41;;;;;;;10.60;7.63;;;11.40;99.90;;;;;;5105346;28;20104;-68
2022/06/03 03:58:28;;;;;;;12.68;7.68;;;11.50;99.90;;;;;;5055034;28;20063;-69
2022/06/03 04:00:59;;;;;;;13.27;8.00;;;11.40;99.90;;;;;;5101393;28;20044;-69
2022/06/03 04:03:56;;;;;;;13.60;8.88;;;11.40;99.90;;;;;;5107778;28;20043;-69
2022/06/03 04:06:45;;;;;;;;;;;11.40;99.90;;;;;;5092962;28;20050;-69
2022/06/03 04:09:47;;;;;;;9.57;7.80;;;11.50;99.90;;;;;;5097609;28;19966;-69
2022/06/03 04:12:32;;;;;;;10.88;8.23;;;11.50;99.90;;;;;;5094216;28;20164;-69
2022/06/03 04:15:33;;;;;;;13.10;8.70;;;11.50;99.90;;;;;;5090367;28;20052;-69
2022/06/03 04:18:29;;;;;;;11.75;8.45;;;11.50;99.90;;;;;;5073545;28;20055;-69
2022/06/03 04:21:16;;;;;;;10.90;8.57;;;11.50;99.90;;;;;;5090394;28;20047;-69
2022/06/03 04:24:05;;;;;;;10.65;9.05;;;11.60;99.90;;;;;;5110504;28;20052;-69
2022/06/03 04:26:30;;;;;;;11.27;8.95;;;11.60;99.90;;;;;;5091603;28;20114;-69
2022/06/03 04:29:35;;;;;;;11.82;8.98;;;11.60;99.90;;;;;;5092247;28;20131;-69
2022/06/03 04:32:04;;;;;;;11.43;9.25;;;11.70;99.90;;;;;;5092707;28;20048;-69
2022/06/03 04:35:13;;;;;;;12.20;8.63;;;11.70;99.90;;;;;;5095252;28;20040;-68
2022/06/03 04:38:17;;;;;;;11.57;8.43;;;11.80;99.90;;;;;;5080232;28;20747;-69
2022/06/03 04:41:17;;;;;;;16.05;9.73;;;11.90;99.90;;;;;;5091316;28;20097;-69
2022/06/03 04:43:52;;;;;;;10.52;8.48;;;12.00;99.90;;;;;;5097043;28;20052;-69
2022/06/03 04:46:28;;;;;;;13.57;8.70;;;12.00;99.90;;;;;;5074547;28;20430;-69
2022/06/03 04:49:18;;;;;;;12.73;8.60;;;12.00;99.90;;;;;;5092109;28;20044;-69
2022/06/03 04:52:19;;;;;;;10.85;9.05;;;12.10;99.90;;;;;;5109166;28;20075;-68
2022/06/03 04:55:09;;;;;;;10.52;9.02;;;12.20;99.90;;;;;;5108499;28;20518;-69
2022/06/03 04:58:01;;;;;;;12.75;8.73;;;12.30;99.90;;;;;;5090289;28;20086;-69
2022/06/03 05:00:52;;;;;;;11.63;8.55;;;12.30;99.90;;;;;;5085198;28;20093;-68
2022/06/03 05:03:49;;;;;;;12.15;9.02;;;12.40;99.90;;;;;;5104238;28;20053;-69
2022/06/03 05:07:00;;;;;;;10.07;8.98;;;12.50;99.90;;;;;;5075628;28;20052;-68
2022/06/03 05:09:53;;;;;;;9.75;8.23;;;12.50;99.90;;;;;;5106479;28;20044;-69
2022/06/03 05:12:40;;;;;;;13.57;9.00;;;12.50;99.90;;;;;;5090393;28;20101;-69
2022/06/03 05:15:33;;;;;;;12.77;8.60;;;12.60;99.90;;;;;;5105122;28;20052;-69
2022/06/03 05:18:02;;;;;;;12.95;8.88;;;12.70;99.90;;;;;;5110402;28;20058;-69
2022/06/03 05:21:00;;;;;;;11.43;8.85;;;12.70;99.90;;;;;;5108826;28;20054;-69
2022/06/03 05:24:03;;;;;;;11.93;8.65;;;12.80;99.90;;;;;;5096540;28;20040;-69
2022/06/03 05:26:50;;;;;;;10.02;8.60;;;12.90;99.90;;;;;;5105280;28;20051;-69
2022/06/03 05:29:25;;;;;;;11.18;8.15;;;12.90;99.90;;;;;;5080553;28;20051;-69
2022/06/03 05:32:28;;;;;;;14.20;9.32;;;13.00;99.90;;;;;;5097456;28;20055;-68
2022/06/03 05:35:22;;;;;;;14.48;7.97;;;13.10;99.90;;;;;;5087674;28;20049;-69
2022/06/03 05:38:26;;;;;;;9.30;7.88;;;13.10;99.90;;;;;;5109667;28;20078;-68
2022/06/03 05:44:34;;;;;;;10.70;8.40;;;13.20;99.90;;;;;;5103203;28;20515;-69
2022/06/03 05:47:12;;;;;;;12.17;8.30;;;13.30;99.90;;;;;;5109881;28;20043;-70
2022/06/03 05:49:59;;;;;;;12.23;7.90;;;13.30;99.90;;;;;;5087732;28;20616;-69
2022/06/03 05:52:31;;;;;;;10.32;7.88;;;13.40;99.90;;;;;;5101050;28;20040;-69
2022/06/03 05:55:20;;;;;;;10.93;8.45;;;13.40;99.90;;;;;;5093586;28;20052;-69
2022/06/03 05:58:06;;;;;;;12.10;8.55;;;13.50;99.90;;;;;;5095281;28;20516;-71
2022/06/03 06:00:46;;;;;;;12.82;8.27;;;13.60;99.90;;;;;;5071169;28;20131;-69
2022/06/03 06:03:30;;;;;;;12.55;7.85;;;13.60;99.90;;;;;;5088529;28;20048;-69
2022/06/03 06:06:39;;;;;;;10.98;8.00;;;13.70;99.90;;;;;;5088400;28;20048;-69
2022/06/03 06:09:42;;;;;;;10.57;7.60;;;13.90;99.90;;;;;;5088426;28;20044;-69
2022/06/03 06:12:20;;;;;;;11.10;7.43;;;13.90;99.90;;;;;;5011330;28;20047;-69
2022/06/03 06:15:03;;;;;;;9.95;7.18;;;14.00;99.90;;;;;;5088872;28;20403;-69
2022/06/03 06:17:50;;;;;;;10.07;6.90;;;14.10;99.90;;;;;;5088928;28;20051;-69
2022/06/03 06:20:32;;;;;;;10.68;7.93;;;14.20;99.90;;;;;;5089583;28;20549;-69
2022/06/03 06:23:15;;;;;;;8.10;6.38;;;14.30;99.90;;;;;;5087667;28;20036;-69
2022/06/03 06:26:07;;;;;;;8.90;5.82;;;14.40;99.90;;;;;;5095559;28;20126;-69
2022/06/03 06:28:54;;;;;;;10.88;5.82;;;14.50;99.90;;;;;;5088595;28;20048;-69
2022/06/03 06:31:28;;;;;;;8.40;5.53;;;14.60;99.90;;;;;;5068986;28;20429;-69
2022/06/03 06:34:41;;;;;;;8.25;5.85;;;14.70;99.90;;;;;;5088626;28;20055;-69
2022/06/03 06:37:29;;;;;;;7.85;5.63;;;14.80;99.90;;;;;;5000060;28;20048;-69
2022/06/03 06:40:16;;;;;;;8.32;5.38;;;14.90;99.90;;;;;;4991090;28;20069;-69
2022/06/03 06:43:14;;;;;;;7.93;5.07;;;15.00;99.90;;;;;;5052017;28;20048;-69
2022/06/03 06:45:52;;;;;;;9.68;5.20;;;15.10;99.90;;;;;;5053805;28;20059;-69
2022/06/03 06:48:36;;;;;;;7.13;4.93;;;15.20;99.90;;;;;;5087653;28;20044;-69
2022/06/03 06:51:40;;;;;;;11.85;5.65;;;15.30;99.90;;;;;;5092659;28;20486;-69
2022/06/03 06:54:27;;;;;;;9.02;4.80;;;15.40;99.90;;;;;;5079714;28;20118;-69
2022/06/03 06:57:03;;;;;;;13.05;4.75;;;15.50;99.90;;;;;;5094984;28;20092;-69
2022/06/03 06:59:44;;;;;;;6.93;4.53;;;15.60;99.90;;;;;;5086924;28;20055;-69
2022/06/03 07:02:20;;;;;;;11.80;4.93;;;15.60;99.90;;;;;;5087972;28;20051;-70
2022/06/03 07:04:56;;;;;;;6.43;4.25;;;15.70;99.90;;;;;;5097591;28;20039;-69
2022/06/03 07:07:36;;;;;;;9.00;4.32;;;15.80;99.90;;;;;;5087835;28;20032;-69
2022/06/03 07:10:13;;;;;;;9.40;4.35;;;15.90;99.90;;;;;;5087655;28;20040;-71
2022/06/03 07:12:44;;;;;;;6.68;4.38;;;15.90;99.90;;;;;;5086973;28;20076;-71
2022/06/03 07:15:14;;;;;;;9.63;4.38;;;16.00;99.90;;;;;;5094244;28;20040;-73
2022/06/03 07:21:31;;;;;;;6.57;4.28;;;16.20;99.90;;;;;;5040947;28;20219;-72
2022/06/03 07:24:15;;;;;;;8.00;4.25;;;16.40;99.90;;;;;;5087287;28;20203;-72
2022/06/03 07:26:48;;;;;;;6.75;4.28;;;16.40;99.90;;;;;;5086929;28;20047;-74
2022/06/03 07:29:19;;;;;;;6.72;4.13;;;16.50;99.90;;;;;;5092030;28;20109;-72
2022/06/03 07:31:52;;;;;;;7.90;4.35;;;16.70;99.90;;;;;;5087800;28;20099;-71
2022/06/03 07:34:44;;;;;;;7.35;4.30;;;16.80;99.90;;;;;;5079105;28;20086;-72
2022/06/03 07:37:28;;;;;;;7.63;4.07;;;16.90;99.90;;;;;;5090426;28;20044;-71
2022/06/03 07:40:05;;;;;;;7.75;3.88;;;16.90;99.90;;;;;;5092093;28;20044;-72
2022/06/03 07:42:31;;;;;;;;;;;17.00;99.90;;;;;;5070653;28;20060;-73
2022/06/03 07:45:05;;;;;;;7.30;3.97;;;17.10;99.90;;;;;;5103464;28;19931;-76
2022/06/03 07:47:33;;;;;;;7.93;4.15;;;17.20;99.90;;;;;;5089436;28;20066;-75
2022/06/03 07:50:02;;;;;;;8.95;4.32;;;17.30;99.90;;;;;;5089959;28;20762;-73
2022/06/03 07:52:41;;;;;;;7.38;4.00;;;17.40;99.90;;;;;;5108735;28;20093;-75
2022/06/03 07:55:16;;;;;;;6.82;4.22;;;17.40;99.90;;;;;;5101538;28;20031;-74
2022/06/03 07:57:49;;;;;;;8.65;4.18;;;17.40;99.90;;;;;;5090813;28;20400;-74
2022/06/03 08:00:18;;;;;;;8.00;4.57;;;17.50;99.90;;;;;;5097187;28;20478;-74
2022/06/03 08:02:44;;;;;;;6.60;3.92;;;17.50;99.90;;;;;;5105616;28;20406;-73
2022/06/03 08:05:16;;;;;;;9.38;4.50;;;17.60;99.90;;;;;;5104127;28;20040;-74
2022/06/03 08:13:20;;;;;;;7.55;4.40;;;17.90;99.90;;;;;;5104917;28;20042;-74
2022/06/03 08:16:00;;;;;;;7.72;4.60;;;18.00;99.90;;;;;;5105031;28;20040;-73
2022/06/03 08:18:30;;;;;;;6.95;3.90;;;18.10;99.90;;;;;;5107394;28;20040;-73
2022/06/03 08:21:04;;;;;;;5.63;3.95;;;18.10;99.90;;;;;;5103244;28;20821;-72
2022/06/03 08:23:33;;;;;;;6.93;4.95;;;18.20;99.90;;;;;;5100980;28;20402;-71
2022/06/03 08:26:03;;;;;;;8.13;4.53;;;18.30;99.90;;;;;;5105535;28;20111;-70
2022/06/03 08:28:32;;;;;;;6.90;3.92;;;18.40;99.90;;;;;;5107606;28;20080;-73
2022/06/03 08:31:01;;;;;;;6.70;4.20;;;18.50;99.90;;;;;;5079797;28;20051;-73
2022/06/03 08:33:39;;;;;;;7.07;4.35;;;18.60;99.90;;;;;;5088741;28;20090;-74
2022/06/03 08:36:05;;;;;;;;;;;18.60;99.90;;;;;;5075971;28;20624;-71
2022/06/03 08:38:52;;;;;;;5.88;3.75;;;18.60;99.90;;;;;;5093139;28;19927;-73
2022/06/03 08:41:27;;;;;;;6.95;4.20;;;18.70;99.90;;;;;;5100245;28;20039;-72
2022/06/03 08:44:13;;;;;;;7.90;4.30;;;18.80;99.90;;;;;;5086345;28;20051;-73
2022/06/03 08:47:06;;;;;;;9.65;4.03;;;18.90;99.90;;;;;;5093615;28;20075;-70
2022/06/03 08:50:06;;;;;;;6.38;4.05;;;18.90;99.90;;;;;;5103152;28;20040;-71
2022/06/03 08:52:52;;;;;;;6.20;3.88;;;19.00;99.90;;;;;;5094642;28;20047;-72
2022/06/03 08:55:45;;;;;;;6.60;3.90;;;19.10;99.90;;;;;;5110258;28;20043;-73
2022/06/03 08:58:40;;;;;;;5.43;3.83;;;19.20;99.90;;;;;;5109979;28;20043;-72
2022/06/03 09:01:40;;;;;;;6.57;4.10;;;19.20;99.80;;;;;;5095174;28;20036;-73
2022/06/03 09:04:25;;;;;;;5.30;3.58;;;19.20;99.20;;;;;;5071898;28;20064;-74
2022/06/03 09:07:01;;;;;;;5.10;3.38;;;19.30;99.40;;;;;;5073525;28;20044;-71
2022/06/03 09:09:35;;;;;;;4.85;3.58;;;19.30;99.90;;;;;;5092543;28;20151;-73
2022/06/03 09:12:11;;;;;;;7.60;3.92;;;19.50;99.00;;;;;;5104115;28;20044;-72
2022/06/03 09:14:41;;;;;;;6.25;4.00;;;19.50;98.10;;;;;;5110543;28;20068;-72
2022/06/03 09:17:46;;;;;;;7.07;3.85;;;19.60;99.60;;;;;;5085140;28;20043;-74
2022/06/03 09:20:22;;;;;;;5.90;3.58;;;19.80;99.90;;;;;;5080986;28;20040;-71
2022/06/03 09:22:55;;;;;;;5.30;3.90;;;19.80;97.80;;;;;;5084776;28;20058;-72
2022/06/03 09:25:21;;;;;;;7.30;3.85;;;19.80;97.40;;;;;;5104297;28;20051;-73
2022/06/03 09:27:48;;;;;;;5.97;3.67;;;19.80;96.00;;;;;;5097406;28;20028;-71
2022/06/03 09:30:19;;;;;;;7.38;3.92;;;19.90;97.10;;;;;;5074563;28;20126;-72
2022/06/03 09:32:49;;;;;;;7.13;4.13;;;20.00;97.30;;;;;;5099350;28;20402;-71
2022/06/03 09:35:19;;;;;;;5.18;4.13;;;20.00;95.70;;;;;;5088217;28;20079;-72
2022/06/03 09:37:51;;;;;;;6.85;4.20;;;20.10;97.80;;;;;;5077213;28;20040;-72
2022/06/03 09:40:24;;;;;;;5.30;3.72;;;20.20;97.10;;;;;;5091237;28;20046;-72
2022/06/03 09:42:59;;;;;;;6.65;4.22;;;20.30;96.20;;;;;;5094885;28;20348;-72
2022/06/03 09:45:26;;;;;;;5.55;4.30;;;20.30;92.00;;;;;;5083840;28;20189;-70
2022/06/03 09:47:52;;;;;;;7.20;4.25;;;20.20;89.40;;;;;;5104579;28;20111;-72
2022/06/03 09:50:22;;;;;;;6.43;4.10;;;20.20;91.00;;;;;;5077358;28;20082;-76
2022/06/03 09:52:48;;;;;;;7.65;4.43;;;20.20;92.80;;;;;;5102814;28;20073;-73
2022/06/03 09:55:28;;;;;;;5.95;4.10;;;20.30;93.40;;;;;;5094383;28;22008;-72
2022/06/03 09:57:57;;;;;;;8.40;3.83;;;20.30;89.80;;;;;;5083324;28;20052;-75
2022/06/03 10:00:28;;;;;;;9.23;4.32;;;20.30;87.00;;;;;;5070548;28;20047;-73
2022/06/03 10:02:56;;;;;;;8.18;4.07;;;20.40;89.40;;;;;;5093275;28;20071;-71
2022/06/03 10:05:22;;;;;;;6.10;3.75;;;20.40;87.10;;;;;;5074651;28;20096;-70
2022/06/03 10:07:55;;;;;;;5.35;3.72;;;20.50;90.00;;;;;;5081821;28;20127;-73
2022/06/03 10:13:07;;;;;;;6.00;3.63;;;20.60;90.20;;;;;;5099718;28;20044;-70
2022/06/03 10:15:39;;;;;;;4.47;3.25;;;20.70;87.40;;;;;;5083632;28;20043;-71
2022/06/03 10:18:44;;;;;;;4.35;2.85;;;20.80;81.70;;;;;;5102224;28;20047;-68
2022/06/03 10:21:10;;;;;;;5.63;3.30;;;20.90;75.90;;;;;;5094639;28;20040;-69
2022/06/03 10:23:45;;;;;;;6.63;3.07;;;20.90;80.00;;;;;;5095554;28;20100;-68
2022/06/03 10:26:26;;;;;;;6.72;3.65;;;21.00;78.30;;;;;;5087133;28;20048;-69
2022/06/03 10:28:55;;;;;;;4.15;3.20;;;21.10;79.30;;;;;;5093593;28;20063;-70
2022/06/03 10:31:28;;;;;;;4.57;3.38;;;21.10;78.00;;;;;;5105296;28;20051;-70
2022/06/03 10:33:56;;;;;;;5.05;3.17;;;21.20;74.70;;;;;;5096605;28;20070;-72
2022/06/03 10:36:33;;;;;;;4.82;3.10;;;21.30;78.60;;;;;;5097104;28;20079;-70
2022/06/03 10:38:59;;;;;;;5.10;3.20;;;21.40;77.60;;;;;;5101600;28;20580;-69
2022/06/03 10:41:40;;;;;;;4.90;3.38;;;21.40;72.30;;;;;;5094694;28;20070;-71
2022/06/03 10:44:18;;;;;;;5.05;3.20;;;21.50;68.20;;;;;;5076719;28;20044;-71
2022/06/03 10:46:59;;;;;;;4.55;2.90;;;21.40;66.90;;;;;;5098120;28;20040;-70
2022/06/03 10:49:27;;;;;;;8.93;3.00;;;21.40;70.20;;;;;;5078552;28;20051;-72
2022/06/03 11:03:04;;;;;;;4.40;2.90;;;21.70;71.00;;;;;;5089245;28;20056;-70
2022/06/03 11:05:31;;;;;;;5.82;2.92;;;21.80;72.80;;;;;;5076509;28;20052;-69
2022/06/03 11:08:10;;;;;;;3.70;2.90;;;21.90;66.00;;;;;;5092709;28;20051;-70
2022/06/03 11:10:42;;;;;;;7.03;2.90;;;22.00;62.20;;;;;;5075356;28;20109;-70
2022/06/03 11:13:12;;;;;;;3.67;2.97;;;22.00;64.30;;;;;;5075646;28;20036;-70
2022/06/03 11:15:47;;;;;;;5.15;3.50;;;22.10;64.10;;;;;;5075336;28;20554;-70
2022/06/03 11:18:27;;;;;;;3.25;2.95;;;22.10;63.90;;;;;;5075604;28;20049;-70
2022/06/03 11:20:55;;;;;;;5.72;2.85;;;22.10;62.00;;;;;;5091477;28;20402;-72
2022/06/03 11:23:21;;;;;;;5.07;2.78;;;22.20;65.20;;;;;;5101727;28;20040;-72
2022/06/03 11:25:50;;;;;;;5.88;3.28;;;22.30;70.60;;;;;;5094391;28;20073;-72
2022/06/03 11:28:37;;;;;;;4.85;2.72;;;22.40;66.50;;;;;;5095916;28;20052;-72
2022/06/03 11:31:14;;;;;;;4.18;3.45;;;22.50;62.20;;;;;;5093978;28;20097;-71
2022/06/03 11:34:08;;;;;;;4.97;3.20;;;22.40;59.50;;;;;;5098514;28;20055;-71
2022/06/03 11:36:45;;;;;;;4.55;3.10;;;22.40;61.30;;;;;;5091422;28;20387;-70
2022/06/03 11:39:20;;;;;;;4.32;3.10;;;22.30;61.10;;;;;;5083091;28;20599;-69
2022/06/03 11:42:05;;;;;;;4.03;2.70;;;22.40;59.50;;;;;;5106369;28;20046;-71
2022/06/03 11:44:40;;;;;;;5.00;3.00;;;22.40;60.10;;;;;;5086000;28;20040;-72
2022/06/03 11:47:23;;;;;;;3.53;3.05;;;22.50;55.90;;;;;;5098677;28;20525;-71
2022/06/03 11:49:49;;;;;;;4.35;3.00;;;22.40;56.50;;;;;;5099221;28;20048;-71
2022/06/03 11:52:16;;;;;;;4.22;2.28;;;22.40;55.90;;;;;;5079045;28;20052;-71
2022/06/03 11:54:42;;;;;;;5.00;3.45;;;22.40;57.50;;;;;;5102609;28;20439;-72
2022/06/03 11:57:09;;;;;;;3.70;2.38;;;22.50;57.30;;;;;;5097227;28;20046;-71
2022/06/03 11:59:58;;;;;;;3.22;2.10;;;22.60;56.20;;;;;;5077058;28;20044;-72
2022/06/03 12:02:43;;;;;;;3.22;2.45;;;22.70;56.70;;;;;;5075393;28;20119;-72
2022/06/03 12:05:13;;;;;;;4.60;3.20;;;22.80;56.00;;;;;;5088011;28;20048;-72
2022/06/03 12:07:44;;;;;;;3.10;2.60;;;22.90;56.90;;;;;;5077486;28;20648;-72
2022/06/03 12:10:27;;;;;;;4.10;2.50;;;23.00;55.80;;;;;;5098677;28;20039;-72
2022/06/03 12:13:26;;;;;;;4.10;2.25;;;23.10;51.40;;;;;;5088471;28;20044;-72
2022/06/03 12:15:56;;;;;;;4.47;2.50;;;23.10;50.80;;;;;;5072973;28;20043;-72
2022/06/03 12:18:30;;;;;;;6.10;2.75;;;23.10;52.20;;;;;;5095515;28;20040;-72
2022/06/03 12:20:57;;;;;;;3.63;2.25;;;23.10;54.00;;;;;;5087456;28;20091;-71
2022/06/03 12:23:22;;;;;;;7.40;2.72;;;23.10;55.50;;;;;;5071288;28;20445;-73
2022/06/03 12:25:54;;;;;;;4.10;2.20;;;23.20;55.00;;;;;;5092962;28;20044;-71
2022/06/03 12:28:34;;;;;;;5.15;2.42;;;23.30;54.50;;;;;;5099158;28;20143;-72
2022/06/03 12:31:10;;;;;;;3.65;2.40;;;23.40;52.80;;;;;;5075636;28;20063;-72
2022/06/03 12:34:07;;;;;;;3.80;2.40;;;23.50;53.80;;;;;;5081727;28;20052;-71
2022/06/03 12:36:50;;;;;;;3.90;2.35;;;23.60;50.30;;;;;;5091433;28;20050;-72
2022/06/03 12:39:25;;;;;;;3.15;2.60;;;23.60;50.10;;;;;;5095548;28;20127;-72
2022/06/03 12:41:50;;;;;;;4.88;2.40;;;23.60;49.40;;;;;;5082056;28;20134;-72
2022/06/03 12:44:37;;;;;;;5.22;2.50;;;23.60;50.60;;;;;;5094733;28;20444;-71
2022/06/03 12:47:35;;;;;;;;;;;23.70;51.30;;;;;;5074165;28;20040;-72
2022/06/03 12:50:06;;;;;;;3.92;2.10;;;23.70;50.20;;;;;;5032573;28;20378;-71
2022/06/03 12:52:35;;;;;;;4.80;2.40;;;23.80;52.30;;;;;;5085881;28;20122;-72
2022/06/03 12:55:10;;;;;;;4.72;2.28;;;23.80;51.00;;;;;;5079393;28;20058;-72
2022/06/03 12:58:01;;;;;;;3.33;1.95;;;23.80;49.60;;;;;;5090905;28;20080;-72
2022/06/03 13:00:34;;;;;;;5.22;2.22;;;23.80;48.70;;;;;;5101499;28;20068;-72
2022/06/03 13:03:26;;;;;;;3.55;2.13;;;23.80;49.80;;;;;;5091673;28;20044;-73
2022/06/03 13:05:57;;;;;;;3.25;2.45;;;23.80;48.60;;;;;;5091477;28;20491;-71
2022/06/03 13:08:29;;;;;;;4.18;2.30;;;23.80;49.20;;;;;;5091200;28;20126;-71
2022/06/03 13:11:03;;;;;;;6.47;2.03;;;23.80;47.60;;;;;;5073770;28;20075;-71
2022/06/03 13:13:29;;;;;;;3.20;2.10;;;23.80;48.60;;;;;;5090970;28;20122;-71
2022/06/03 13:16:17;;;;;;;3.30;2.42;;;23.80;48.50;;;;;;5076613;28;20806;-71
2022/06/03 13:18:54;;;;;;;5.20;2.25;;;23.90;49.60;;;;;;5086544;28;20054;-73
2022/06/03 13:21:57;;;;;;;4.30;2.25;;;23.80;49.10;;;;;;5079966;28;20127;-72
2022/06/03 13:24:27;;;;;;;4.82;2.05;;;23.70;48.60;;;;;;5072167;28;20074;-72
2022/06/03 13:27:28;;;;;;;3.63;1.90;;;23.60;47.90;;;;;;5090857;28;20040;-73
2022/06/03 13:29:57;;;;;;;4.43;2.75;;;23.50;47.90;;;;;;5090997;28;20055;-71
2022/06/03 13:32:34;;;;;;;5.70;2.35;;;23.50;49.20;;;;;;5096226;28;20055;-72
2022/06/03 13:35:25;;;;;;;3.40;1.92;;;23.50;50.50;;;;;;5077529;28;20113;-72
2022/06/03 13:37:59;;;;;;;4.00;2.63;;;23.60;50.60;;;;;;5078640;28;20067;-72
2022/06/03 13:40:25;;;;;;;4.93;2.55;;;23.60;50.40;;;;;;5092740;28;20510;-72
2022/06/03 13:42:59;;;;;;;4.45;2.78;;;23.60;52.50;;;;;;5099612;28;20044;-72
2022/06/03 13:45:44;;;;;;;5.45;2.60;;;23.70;52.00;;;;;;5089680;28;20105;-71
2022/06/03 13:48:28;;;;;;;4.03;2.50;;;23.80;52.30;;;;;;5090608;28;20115;-72
2022/06/03 13:50:54;;;;;;;4.32;2.53;;;23.90;54.30;;;;;;5073652;28;20043;-71
2022/06/03 13:53:27;;;;;;;5.25;2.25;;;24.00;53.00;;;;;;5101317;28;20413;-72
2022/06/03 13:56:00;;;;;;;4.97;1.95;;;24.10;51.30;;;;;;5090540;28;20101;-71
2022/06/03 13:58:40;;;;;;;2.53;2.20;;;24.20;52.50;;;;;;5100881;28;20040;-72
2022/06/03 14:01:22;;;;;;;3.72;2.17;;;24.20;49.90;;;;;;5071487;28;20047;-72
2022/06/03 14:04:07;;;;;;;5.05;2.45;;;24.20;49.70;;;;;;5091471;28;20039;-72
2022/06/03 14:06:42;;;;;;;4.97;2.13;;;24.20;48.80;;;;;;5089257;28;20127;-73
2022/06/03 14:09:16;;;;;;;3.92;2.85;;;24.00;49.70;;;;;;5076282;28;20040;-71
2022/06/03 14:11:46;;;;;;;4.18;2.83;;;24.00;50.40;;;;;;5092670;28;20055;-72
2022/06/03 14:14:40;;;;;;;5.97;2.85;;;24.00;50.90;;;;;;5098125;28;20082;-72
2022/06/03 14:17:34;;;;;;;4.78;2.55;;;24.00;51.00;;;;;;5064062;28;20060;-71
2022/06/03 14:20:04;;;;;;;6.05;2.60;;;24.00;49.40;;;;;;5071822;28;20483;-73
2022/06/03 14:22:54;;;;;;;3.53;2.60;;;24.10;50.60;;;;;;5073417;28;20403;-71
2022/06/03 14:25:32;;;;;;;2.78;2.35;;;24.20;50.00;;;;;;5075891;28;20051;-72
2022/06/03 14:28:01;;;;;;;4.63;2.42;;;24.20;49.20;;;;;;5088489;28;20521;-72